createdAt,value
2023-06-13T00:02:51.486Z,61.70
2023-06-13T00:08:02.233Z,61.85
2023-06-13T00:18:38.755Z,61.72
2023-06-13T00:23:43.418Z,62.05
2023-06-13T00:34:55.144Z,61.58
2023-06-13T00:39:59.687Z,61.93
2023-06-13T00:45:47.453Z,61.72
2023-06-13T00:51:08.508Z,62.05
2023-06-13T00:56:18.961Z,61.43
2023-06-13T01:01:27.068Z,61.50
2023-06-13T01:06:31.278Z,61.59
2023-06-13T01:17:42.832Z,61.68
2023-06-13T01:22:58.351Z,61.51
2023-06-13T01:34:24.875Z,61.90
2023-06-13T01:39:26.606Z,61.91
2023-06-13T01:55:45.858Z,62.16
2023-06-13T02:06:55.204Z,62.14
2023-06-13T02:11:59.895Z,61.70
2023-06-13T02:17:38.527Z,61.81
2023-06-13T02:22:50.884Z,61.76
2023-06-13T02:27:58.567Z,62.19
2023-06-13T02:33:00.431Z,62.29
2023-06-13T02:38:43.378Z,61.84
2023-06-13T02:43:52.564Z,62.30
2023-06-13T02:48:57.077Z,61.99
2023-06-13T02:54:05.159Z,62.28
2023-06-13T02:59:08.246Z,62.37
2023-06-13T03:10:16.350Z,62.24
2023-06-13T03:15:19.953Z,62.46
2023-06-13T03:20:30.939Z,62.11
2023-06-13T03:26:00.480Z,61.95
2023-06-13T03:31:12.629Z,62.46
2023-06-13T03:36:14.410Z,62.53
2023-06-13T03:41:22.156Z,62.95
2023-06-13T03:47:05.372Z,62.70
2023-06-13T03:52:22.319Z,63.19
2023-06-13T03:57:39.404Z,62.86
2023-06-13T04:02:45.576Z,62.93
2023-06-13T04:07:48.006Z,63.20
2023-06-13T04:13:44.093Z,62.80
2023-06-13T04:24:09.125Z,62.06
2023-06-13T04:29:22.859Z,61.70
2023-06-13T04:34:25.928Z,62.26
2023-06-13T04:39:30.460Z,61.77
2023-06-13T04:44:32.396Z,62.02
2023-06-13T04:50:09.334Z,61.69
2023-06-13T04:55:47.721Z,62.26
2023-06-13T05:00:49.520Z,62.20
2023-06-13T05:05:55.530Z,62.57
2023-06-13T05:11:23.876Z,62.36
2023-06-13T05:16:53.342Z,60.59
2023-06-13T05:22:00.354Z,59.28
2023-06-13T05:27:20.451Z,58.81
2023-06-13T05:32:25.007Z,58.18
2023-06-13T05:37:31.282Z,57.95
2023-06-13T05:42:33.091Z,57.88
2023-06-13T05:47:53.652Z,58.06
2023-06-13T05:52:56.762Z,57.83
2023-06-13T05:58:07.489Z,57.76
2023-06-13T06:03:12.250Z,57.62
2023-06-13T06:14:10.088Z,57.97
2023-06-13T06:19:35.903Z,58.15
2023-06-13T06:24:57.866Z,57.54
2023-06-13T06:30:19.468Z,56.97
2023-06-13T06:35:21.226Z,56.99
2023-06-13T06:46:34.040Z,55.30
2023-06-13T06:51:39.130Z,56.21
2023-06-13T07:01:58.198Z,55.85
2023-06-13T07:07:03.134Z,56.96
2023-06-13T07:12:29.152Z,57.23
2023-06-13T07:18:06.270Z,53.30
2023-06-13T07:23:08.037Z,53.90
2023-06-13T07:28:12.748Z,52.63
2023-06-13T07:39:32.263Z,51.13
2023-06-13T07:44:34.016Z,52.79
2023-06-13T07:49:41.988Z,52.58
2023-06-13T08:00:55.495Z,51.93
2023-06-13T08:06:28.204Z,51.26
2023-06-13T08:17:42.416Z,51.80
2023-06-13T08:22:56.101Z,48.60
2023-06-13T08:34:10.365Z,50.18
2023-06-13T08:39:21.883Z,50.57
2023-06-13T08:44:23.842Z,49.84
2023-06-13T08:50:18.128Z,46.88
2023-06-13T08:56:04.400Z,50.33
2023-06-13T09:01:56.280Z,48.84
2023-06-13T09:07:26.697Z,50.18
2023-06-13T09:18:12.586Z,49.42
2023-06-13T09:34:17.086Z,46.80
2023-06-13T09:45:41.685Z,45.52
2023-06-13T10:02:25.315Z,48.12
2023-06-13T10:07:33.177Z,46.45
2023-06-13T10:12:49.960Z,45.78
2023-06-13T10:18:42.922Z,44.73
2023-06-13T10:24:03.903Z,46.60
2023-06-13T10:35:50.403Z,48.59
2023-06-13T10:41:36.002Z,47.40
2023-06-13T10:46:38.403Z,46.21
2023-06-13T10:52:04.975Z,46.86
2023-06-13T10:57:45.358Z,45.69
2023-06-13T11:03:07.432Z,46.58
2023-06-13T11:08:20.909Z,47.51
2023-06-13T11:13:38.788Z,47.02
2023-06-13T11:24:44.445Z,46.66
2023-06-13T11:29:54.257Z,47.70
2023-06-13T11:40:52.590Z,46.17
2023-06-13T11:46:16.701Z,46.49
2023-06-13T11:56:54.837Z,45.50
2023-06-13T12:01:56.643Z,45.03
2023-06-13T12:07:11.863Z,45.50
2023-06-13T12:12:19.609Z,46.85
2023-06-13T12:17:30.341Z,46.52
2023-06-13T12:23:04.315Z,48.85
2023-06-13T12:28:12.022Z,47.10
2023-06-13T12:33:18.641Z,46.65
2023-06-13T12:38:31.829Z,47.48
2023-06-13T12:43:43.368Z,45.11
2023-06-13T12:48:58.614Z,44.87
2023-06-13T12:54:26.312Z,46.29
2023-06-13T12:59:45.087Z,46.39
2023-06-13T13:04:50.653Z,46.46
2023-06-13T13:16:17.597Z,48.90
2023-06-13T13:21:19.407Z,47.36
2023-06-13T13:26:27.103Z,46.23
2023-06-13T13:31:42.061Z,45.56
2023-06-13T13:36:43.922Z,44.74
2023-06-13T13:41:45.601Z,44.36
2023-06-13T13:46:57.125Z,46.79
2023-06-13T13:57:55.141Z,46.36
2023-06-13T14:03:13.670Z,45.18
2023-06-13T14:14:52.563Z,46.43
2023-06-13T14:19:58.685Z,45.92
2023-06-13T14:25:07.174Z,45.86
2023-06-13T14:36:21.393Z,46.69
2023-06-13T14:47:32.224Z,42.19
2023-06-13T14:53:07.496Z,44.02
2023-06-13T14:58:10.954Z,45.10
2023-06-13T15:03:30.212Z,43.99
2023-06-13T15:14:39.487Z,45.64
2023-06-13T15:25:45.106Z,43.87
2023-06-13T15:31:03.044Z,43.26
2023-06-13T15:36:35.446Z,42.27
2023-06-13T15:41:40.316Z,45.79
2023-06-13T15:57:43.490Z,44.95
2023-06-13T16:09:07.998Z,45.49
2023-06-13T16:20:13.600Z,44.59
2023-06-13T16:25:31.884Z,46.28
2023-06-13T16:30:43.238Z,46.13
2023-06-13T16:35:57.071Z,46.31
2023-06-13T16:41:00.246Z,45.95
2023-06-13T16:46:26.796Z,46.07
2023-06-13T16:57:32.607Z,47.56
2023-06-13T17:03:08.255Z,46.76
2023-06-13T17:07:59.960Z,46.28
2023-06-13T17:13:27.021Z,49.16
2023-06-13T17:18:50.759Z,46.53
2023-06-13T17:23:52.484Z,48.71
2023-06-13T17:29:01.933Z,49.53
2023-06-13T17:40:03.076Z,50.20
2023-06-13T17:45:07.027Z,49.90
2023-06-13T17:50:14.526Z,51.08
2023-06-13T17:55:43.785Z,51.11
2023-06-13T18:01:05.386Z,50.91
2023-06-13T18:06:32.020Z,50.51
2023-06-13T18:17:47.730Z,51.15
2023-06-13T18:22:55.657Z,50.84
2023-06-13T18:28:03.716Z,51.71
2023-06-13T18:33:06.794Z,50.98
2023-06-13T18:38:11.744Z,51.48
2023-06-13T18:43:13.300Z,51.33
2023-06-13T18:48:31.145Z,52.10
2023-06-13T18:53:54.855Z,50.77
2023-06-13T18:59:02.760Z,51.27
2023-06-13T19:04:12.159Z,51.21
2023-06-13T19:09:13.925Z,53.04
2023-06-13T19:14:15.687Z,52.67
2023-06-13T19:19:50.080Z,52.09
2023-06-13T19:25:07.731Z,51.97
2023-06-13T19:30:15.409Z,50.99
2023-06-13T19:35:18.874Z,50.95
2023-06-13T19:40:26.265Z,51.11
2023-06-13T19:45:39.966Z,51.09
2023-06-13T19:51:18.017Z,50.96
2023-06-13T19:56:45.531Z,50.86
2023-06-13T20:01:47.414Z,51.18
2023-06-13T20:06:56.634Z,51.61
2023-06-13T20:17:57.883Z,52.52
2023-06-13T20:23:03.747Z,52.93
2023-06-13T20:28:05.705Z,53.74
2023-06-13T20:33:13.482Z,54.20
2023-06-13T20:43:54.155Z,53.82
2023-06-13T20:48:55.879Z,54.10
2023-06-13T20:50:36.460Z,54.35
2023-06-13T20:53:59.141Z,53.59
2023-06-13T21:05:23.240Z,54.01
2023-06-13T21:11:05.512Z,54.51
2023-06-13T21:27:25.793Z,54.58
2023-06-13T21:32:32.291Z,55.00
2023-06-13T21:38:04.882Z,54.66
2023-06-13T21:43:09.643Z,55.00
2023-06-13T21:48:18.580Z,55.03
2023-06-13T21:59:32.013Z,54.87
2023-06-13T22:04:47.282Z,54.97
2023-06-13T22:10:26.011Z,54.95
2023-06-13T22:21:41.302Z,54.83
2023-06-13T22:26:55.006Z,54.92
2023-06-13T22:32:02.900Z,55.01
2023-06-13T22:37:24.553Z,55.42
2023-06-13T22:42:32.486Z,55.36
2023-06-13T22:48:18.485Z,55.68
2023-06-13T22:53:30.977Z,55.73
2023-06-13T22:58:39.296Z,55.73
2023-06-13T23:09:48.059Z,55.68
2023-06-13T23:20:58.806Z,56.14
2023-06-13T23:37:55.789Z,56.22
2023-06-13T23:43:00.625Z,56.32
2023-06-13T23:54:28.644Z,56.37
